createdAt,value
2018-11-06T00:01:21.325Z,36.37
2018-11-06T00:03:54.751Z,34.30
2018-11-06T00:06:22.674Z,34.30
2018-11-06T00:08:50.657Z,30.67
2018-11-06T00:11:18.813Z,30.97
2018-11-06T00:13:50.066Z,29.07
2018-11-06T00:16:18.180Z,29.63
2018-11-06T00:18:46.255Z,27.43
2018-11-06T00:21:14.209Z,28.73
2018-11-06T00:23:52.056Z,26.73
2018-11-06T00:26:20.046Z,25.93
2018-11-06T00:28:48.010Z,26.93
2018-11-06T00:31:16.448Z,26.37
2018-11-06T00:33:44.370Z,27.27
2018-11-06T00:36:13.006Z,27.00
2018-11-06T00:38:41.480Z,25.37
2018-11-06T00:41:09.488Z,25.33
2018-11-06T00:43:37.477Z,27.27
2018-11-06T00:46:05.642Z,25.97
2018-11-06T00:48:33.752Z,27.20
2018-11-06T00:51:03.142Z,27.07
2018-11-06T00:53:34.323Z,26.47
2018-11-06T00:56:02.355Z,26.60
2018-11-06T00:58:30.461Z,27.27
2018-11-06T01:00:59.665Z,25.73
2018-11-06T01:03:34.057Z,25.57
2018-11-06T01:06:02.100Z,25.17
2018-11-06T01:08:30.117Z,25.57
2018-11-06T01:10:58.352Z,25.60
2018-11-06T01:13:26.622Z,25.07
2018-11-06T01:15:54.830Z,26.27
2018-11-06T01:18:22.821Z,25.17
2018-11-06T01:20:51.485Z,25.53
2018-11-06T01:23:19.456Z,24.80
2018-11-06T01:25:47.548Z,24.97
2018-11-06T01:28:15.601Z,25.27
2018-11-06T01:30:43.759Z,24.20
2018-11-06T01:33:11.762Z,25.33
2018-11-06T01:35:42.756Z,24.63
2018-11-06T01:38:10.804Z,25.53
2018-11-06T01:40:38.796Z,24.40
2018-11-06T01:43:06.823Z,24.90
2018-11-06T01:45:52.934Z,24.23
2018-11-06T01:48:20.949Z,24.77
2018-11-06T01:50:49.081Z,24.23
2018-11-06T01:53:17.153Z,23.67
2018-11-06T01:55:45.248Z,25.30
2018-11-06T01:58:13.280Z,24.27
2018-11-06T02:00:41.408Z,24.07
2018-11-06T02:03:09.739Z,25.47
2018-11-06T02:05:37.896Z,24.20
2018-11-06T02:08:06.091Z,23.40
2018-11-06T02:10:36.042Z,24.33
2018-11-06T02:13:04.965Z,22.33
2018-11-06T02:15:36.610Z,23.73
2018-11-06T02:18:05.117Z,22.57
2018-11-06T02:20:33.123Z,22.63
2018-11-06T02:23:01.328Z,22.57
2018-11-06T02:25:29.473Z,23.60
2018-11-06T02:27:57.647Z,24.17
2018-11-06T02:30:25.723Z,23.83
2018-11-06T02:32:54.370Z,24.60
2018-11-06T02:35:24.530Z,24.77
2018-11-06T02:37:53.423Z,24.63
2018-11-06T02:40:21.372Z,22.93
2018-11-06T02:42:49.435Z,22.70
2018-11-06T02:45:24.419Z,23.40
2018-11-06T02:47:52.452Z,22.33
2018-11-06T02:50:20.559Z,22.77
2018-11-06T02:52:48.638Z,22.97
2018-11-06T02:55:18.679Z,22.20
2018-11-06T02:57:46.879Z,23.33
2018-11-06T03:00:16.125Z,22.03
2018-11-06T03:02:45.019Z,23.10
2018-11-06T03:05:23.059Z,21.63
2018-11-06T03:07:51.142Z,22.67
2018-11-06T03:10:27.637Z,22.80
2018-11-06T03:12:55.776Z,21.03
2018-11-06T03:15:30.390Z,21.40
2018-11-06T03:17:58.491Z,21.13
2018-11-06T03:20:26.547Z,20.67
2018-11-06T03:22:54.745Z,22.23
2018-11-06T03:25:29.337Z,21.17
2018-11-06T03:27:57.429Z,21.20
2018-11-06T03:30:26.236Z,21.80
2018-11-06T03:32:54.472Z,21.63
2018-11-06T03:35:22.602Z,21.43
2018-11-06T03:37:50.817Z,21.93
2018-11-06T03:40:18.942Z,22.00
2018-11-06T03:42:47.159Z,20.80
2018-11-06T03:45:22.641Z,21.00
2018-11-06T03:47:50.744Z,20.37
2018-11-06T03:50:18.935Z,20.47
2018-11-06T03:52:47.121Z,19.27
2018-11-06T03:55:17.455Z,20.80
2018-11-06T03:57:45.829Z,20.23
2018-11-06T04:00:14.817Z,20.23
2018-11-06T04:02:43.571Z,19.73
2018-11-06T04:05:18.447Z,19.67
2018-11-06T04:07:46.693Z,19.43
2018-11-06T04:10:15.268Z,19.90
2018-11-06T04:12:43.487Z,21.13
2018-11-06T04:15:22.825Z,18.47
2018-11-06T04:17:50.913Z,18.57
2018-11-06T04:20:19.092Z,20.93
2018-11-06T04:22:47.343Z,20.73
2018-11-06T04:25:19.084Z,20.57
2018-11-06T04:27:47.252Z,22.73
2018-11-06T04:30:24.499Z,21.40
2018-11-06T04:32:54.041Z,22.77
2018-11-06T04:35:23.253Z,21.03
2018-11-06T04:37:51.391Z,20.03
2018-11-06T04:40:19.555Z,21.97
2018-11-06T04:42:47.641Z,20.33
2018-11-06T04:45:22.006Z,23.03
2018-11-06T04:47:50.055Z,22.10
2018-11-06T04:50:19.827Z,22.53
2018-11-06T04:52:48.076Z,22.03
2018-11-06T04:55:23.509Z,23.70
2018-11-06T04:57:51.789Z,23.47
2018-11-06T05:00:20.245Z,22.50
2018-11-06T05:02:48.371Z,21.13
2018-11-06T05:05:23.533Z,20.97
2018-11-06T05:07:52.623Z,20.87
2018-11-06T05:10:20.899Z,20.87
2018-11-06T05:12:49.217Z,20.57
2018-11-06T05:15:19.392Z,21.10
2018-11-06T05:17:47.609Z,20.80
2018-11-06T05:20:16.826Z,19.63
2018-11-06T05:22:45.755Z,19.43
2018-11-06T05:25:14.444Z,20.33
2018-11-06T05:27:43.035Z,19.60
2018-11-06T05:30:12.001Z,17.93
2018-11-06T05:32:41.802Z,17.83
2018-11-06T05:35:16.589Z,17.93
2018-11-06T05:37:44.732Z,17.73
2018-11-06T05:40:25.136Z,16.00
2018-11-06T05:42:54.046Z,15.80
2018-11-06T05:45:42.315Z,14.37
2018-11-06T05:48:10.244Z,13.90
2018-11-06T05:50:38.297Z,11.93
2018-11-06T05:53:06.351Z,12.93
2018-11-06T05:55:34.436Z,11.80
2018-11-06T05:58:02.736Z,11.77
2018-11-06T06:00:31.090Z,10.97
2018-11-06T06:03:00.720Z,11.33
2018-11-06T06:05:35.793Z,10.67
2018-11-06T06:08:04.767Z,10.03
2018-11-06T06:10:32.768Z,9.27
2018-11-06T06:13:02.280Z,9.93
2018-11-06T06:15:34.393Z,9.90
2018-11-06T06:18:04.141Z,9.53
2018-11-06T06:20:32.507Z,9.03
2018-11-06T06:23:05.981Z,8.53
2018-11-06T06:25:50.007Z,8.67
2018-11-06T06:28:31.758Z,8.33
2018-11-06T06:31:05.629Z,7.50
2018-11-06T06:33:34.283Z,7.53
2018-11-06T06:36:03.377Z,8.50
2018-11-06T06:38:31.791Z,8.63
2018-11-06T06:41:00.679Z,8.73
2018-11-06T06:43:30.055Z,7.20
2018-11-06T06:45:59.344Z,7.40
2018-11-06T06:48:27.932Z,7.03
2018-11-06T06:50:56.632Z,6.50
2018-11-06T06:53:24.760Z,6.97
2018-11-06T06:55:52.981Z,6.83
2018-11-06T06:58:22.848Z,6.63
2018-11-06T07:00:51.924Z,7.83
2018-11-06T07:03:20.202Z,7.13
2018-11-06T07:05:48.642Z,7.30
2018-11-06T07:08:17.020Z,6.70
2018-11-06T07:10:45.326Z,6.87
2018-11-06T07:13:15.208Z,6.63
2018-11-06T07:18:10.348Z,6.73
2018-11-06T07:20:38.444Z,7.10
2018-11-06T07:23:07.000Z,7.70
2018-11-06T07:25:45.298Z,7.93
2018-11-06T07:28:13.465Z,7.90
2018-11-06T07:30:41.718Z,7.50
2018-11-06T07:33:14.745Z,6.80
2018-11-06T07:35:48.405Z,6.60
2018-11-06T07:38:16.270Z,6.90
2018-11-06T07:40:44.314Z,6.13
2018-11-06T07:43:12.494Z,5.90
2018-11-06T07:45:42.130Z,5.80
2018-11-06T07:48:10.244Z,6.70
2018-11-06T07:50:38.442Z,6.67
2018-11-06T07:53:06.760Z,6.07
2018-11-06T07:55:38.868Z,5.90
2018-11-06T07:58:07.662Z,5.60
2018-11-06T08:00:35.906Z,5.80
2018-11-06T08:03:03.946Z,6.00
2018-11-06T08:05:34.232Z,6.10
2018-11-06T08:08:02.446Z,5.37
2018-11-06T08:10:30.574Z,5.77
2018-11-06T08:12:59.889Z,5.20
2018-11-06T08:15:27.960Z,5.30
2018-11-06T08:17:56.075Z,5.20
2018-11-06T08:20:24.427Z,5.57
2018-11-06T08:22:52.574Z,5.10
2018-11-06T08:25:30.359Z,5.03
2018-11-06T08:27:58.566Z,4.73
2018-11-06T08:30:26.796Z,5.00
2018-11-06T08:32:55.294Z,4.67
2018-11-06T08:35:28.186Z,5.03
2018-11-06T08:37:56.373Z,4.87
2018-11-06T08:40:24.511Z,5.10
2018-11-06T08:42:52.627Z,4.97
2018-11-06T08:45:21.202Z,4.87
2018-11-06T08:47:50.549Z,6.03
2018-11-06T08:50:19.373Z,5.63
2018-11-06T08:52:47.553Z,6.30
2018-11-06T08:58:10.672Z,5.70
2018-11-06T09:00:39.243Z,5.27
2018-11-06T09:03:07.489Z,5.30
2018-11-06T09:05:37.492Z,5.10
2018-11-06T09:08:05.715Z,4.77
2018-11-06T09:10:35.202Z,4.90
2018-11-06T09:13:03.800Z,4.40
2018-11-06T09:15:31.842Z,4.57
2018-11-06T09:18:00.450Z,4.10
2018-11-06T09:20:28.671Z,4.40
2018-11-06T09:22:56.688Z,4.60
2018-11-06T09:25:35.284Z,4.20
2018-11-06T09:28:03.419Z,3.83
2018-11-06T09:30:31.839Z,3.93
2018-11-06T09:32:59.990Z,4.17
2018-11-06T09:35:29.314Z,4.20
2018-11-06T09:37:57.543Z,3.90
2018-11-06T09:40:26.327Z,4.10
2018-11-06T09:42:54.492Z,4.33
2018-11-06T09:45:23.713Z,4.20
2018-11-06T09:47:53.632Z,4.17
2018-11-06T09:50:21.641Z,4.00
2018-11-06T09:52:49.959Z,4.50
2018-11-06T09:55:20.183Z,3.90
2018-11-06T09:57:48.316Z,4.10
2018-11-06T10:00:18.634Z,3.97
2018-11-06T10:02:46.694Z,4.27
2018-11-06T10:05:18.281Z,4.20
2018-11-06T10:07:46.503Z,3.97
2018-11-06T10:10:16.011Z,3.77
2018-11-06T10:12:44.401Z,3.47
2018-11-06T10:15:19.347Z,3.53
2018-11-06T10:17:49.893Z,3.50
2018-11-06T10:20:19.777Z,3.23
2018-11-06T10:22:48.005Z,3.70
2018-11-06T10:25:22.282Z,3.57
2018-11-06T10:27:51.389Z,3.03
2018-11-06T10:30:20.064Z,3.67
2018-11-06T10:32:48.180Z,3.33
2018-11-06T10:35:16.373Z,3.40
2018-11-06T10:37:44.537Z,3.93
2018-11-06T10:40:14.545Z,3.63
2018-11-06T10:42:43.091Z,4.33
2018-11-06T10:45:12.323Z,4.17
2018-11-06T10:47:40.401Z,3.40
2018-11-06T10:50:10.286Z,3.57
2018-11-06T10:52:41.425Z,3.20
2018-11-06T10:55:11.071Z,3.63
2018-11-06T10:57:40.391Z,4.10
2018-11-06T11:00:15.673Z,4.17
2018-11-06T11:02:50.430Z,3.80
2018-11-06T11:05:20.495Z,3.97
2018-11-06T11:07:48.447Z,3.43
2018-11-06T11:10:16.537Z,3.30
2018-11-06T11:12:47.872Z,3.80
2018-11-06T11:15:16.379Z,3.97
2018-11-06T11:17:44.728Z,3.60
2018-11-06T11:20:13.800Z,3.87
2018-11-06T11:22:41.846Z,3.93
2018-11-06T11:25:12.617Z,3.47
2018-11-06T11:27:42.305Z,3.57
2018-11-06T11:30:11.535Z,3.57
2018-11-06T11:32:40.869Z,3.53
2018-11-06T11:35:29.925Z,3.80
2018-11-06T11:37:58.048Z,3.97
2018-11-06T11:40:26.431Z,3.80
2018-11-06T11:42:54.335Z,4.20
2018-11-06T11:45:23.499Z,3.80
2018-11-06T11:47:51.499Z,3.63
2018-11-06T11:50:19.570Z,3.60
2018-11-06T11:52:48.287Z,3.90
2018-11-06T11:55:16.171Z,4.77
2018-11-06T11:57:45.073Z,3.43
2018-11-06T12:00:16.813Z,3.77
2018-11-06T12:02:44.800Z,3.80
2018-11-06T12:05:14.809Z,4.23
2018-11-06T12:07:42.687Z,3.80
2018-11-06T12:10:11.547Z,3.90
2018-11-06T12:12:54.147Z,4.10
2018-11-06T12:15:25.278Z,3.67
2018-11-06T12:17:53.225Z,3.77
2018-11-06T12:20:21.084Z,3.70
2018-11-06T12:22:48.925Z,3.93
2018-11-06T12:25:17.445Z,4.40
2018-11-06T12:27:45.375Z,4.30
2018-11-06T12:30:14.532Z,3.63
2018-11-06T12:32:42.551Z,4.20
2018-11-06T12:35:15.695Z,3.97
2018-11-06T12:37:43.745Z,3.40
2018-11-06T12:40:12.683Z,4.00
2018-11-06T12:42:41.099Z,3.90
2018-11-06T12:45:16.671Z,3.50
2018-11-06T12:47:45.374Z,3.73
2018-11-06T12:50:13.452Z,3.90
2018-11-06T12:52:41.699Z,3.70
2018-11-06T12:55:11.303Z,3.60
2018-11-06T12:57:40.037Z,4.20
2018-11-06T13:00:12.280Z,3.77
2018-11-06T13:02:40.249Z,3.80
2018-11-06T13:05:09.701Z,4.13
2018-11-06T13:07:39.025Z,3.70
2018-11-06T13:10:07.301Z,4.10
2018-11-06T13:12:35.344Z,3.90
2018-11-06T13:15:03.414Z,4.20
2018-11-06T13:17:31.341Z,4.00
2018-11-06T13:19:59.321Z,3.97
2018-11-06T13:22:27.259Z,4.10
2018-11-06T13:24:55.263Z,4.10
2018-11-06T13:27:23.237Z,4.10
2018-11-06T13:29:51.187Z,4.30
2018-11-06T13:32:19.245Z,4.27
2018-11-06T13:34:49.153Z,4.57
2018-11-06T13:37:17.147Z,4.20
2018-11-06T13:39:45.034Z,4.53
2018-11-06T13:42:13.557Z,4.67
2018-11-06T13:44:41.769Z,4.10
2018-11-06T13:47:09.965Z,4.40
2018-11-06T13:49:37.962Z,3.97
2018-11-06T13:52:06.471Z,4.37
2018-11-06T13:54:37.857Z,4.17
2018-11-06T13:57:06.005Z,4.07
2018-11-06T13:59:34.401Z,4.23
2018-11-06T14:02:02.409Z,3.60
2018-11-06T14:04:30.372Z,3.83
2018-11-06T14:06:58.776Z,4.17
2018-11-06T14:09:26.957Z,4.10
2018-11-06T14:11:55.873Z,3.90
2018-11-06T14:14:25.863Z,3.67
2018-11-06T14:16:53.859Z,3.87
2018-11-06T14:19:21.989Z,3.77
2018-11-06T14:21:49.911Z,3.70
2018-11-06T14:24:18.171Z,3.87
2018-11-06T14:26:46.260Z,3.63
2018-11-06T14:29:14.205Z,4.13
2018-11-06T14:31:42.207Z,3.77
2018-11-06T14:34:14.429Z,3.80
2018-11-06T14:36:42.463Z,3.73
2018-11-06T14:39:10.433Z,4.37
2018-11-06T14:41:38.417Z,4.07
2018-11-06T14:44:06.417Z,4.67
2018-11-06T14:46:34.415Z,4.53
2018-11-06T14:49:02.675Z,4.17
2018-11-06T14:51:30.625Z,4.70
2018-11-06T14:54:01.830Z,3.77
2018-11-06T14:56:29.796Z,3.90
2018-11-06T14:58:57.779Z,3.50
2018-11-06T15:01:26.910Z,3.93
2018-11-06T15:03:55.977Z,4.00
2018-11-06T15:06:23.956Z,3.97
2018-11-06T15:08:52.273Z,4.00
2018-11-06T15:11:20.729Z,4.27
2018-11-06T15:13:48.674Z,4.23
2018-11-06T15:16:17.937Z,4.03
2018-11-06T15:18:45.935Z,4.50
2018-11-06T15:21:13.863Z,4.47
2018-11-06T15:23:43.070Z,3.90
2018-11-06T15:26:11.211Z,4.30
2018-11-06T15:28:39.217Z,4.37
2018-11-06T15:31:07.300Z,4.67
2018-11-06T15:33:35.287Z,4.07
2018-11-06T15:36:03.333Z,4.87
2018-11-06T15:38:31.583Z,4.27
2018-11-06T15:40:59.857Z,4.37
2018-11-06T15:43:29.139Z,4.60
2018-11-06T15:45:58.321Z,4.40
2018-11-06T15:48:29.606Z,4.60
2018-11-06T15:50:57.609Z,4.17
2018-11-06T15:53:25.771Z,4.67
2018-11-06T15:55:53.810Z,5.57
2018-11-06T15:58:22.338Z,5.70
2018-11-06T16:00:52.032Z,5.17
2018-11-06T16:03:21.609Z,5.57
2018-11-06T16:05:49.947Z,5.57
2018-11-06T16:08:18.077Z,5.80
2018-11-06T16:10:47.244Z,6.10
2018-11-06T16:13:15.371Z,7.27
2018-11-06T16:15:43.371Z,7.43
2018-11-06T16:18:11.371Z,7.63
2018-11-06T16:20:39.533Z,9.00
2018-11-06T16:23:07.567Z,8.60
2018-11-06T16:25:39.405Z,8.20
2018-11-06T16:28:07.492Z,7.03
2018-11-06T16:30:36.982Z,6.77
2018-11-06T16:33:05.847Z,6.80
2018-11-06T16:35:33.746Z,6.13
2018-11-06T16:38:02.058Z,6.43
2018-11-06T16:40:30.027Z,5.67
2018-11-06T16:42:59.278Z,6.90
2018-11-06T16:45:31.125Z,6.53
2018-11-06T16:48:00.636Z,7.57
2018-11-06T16:50:28.685Z,7.67
2018-11-06T16:52:56.669Z,7.00
2018-11-06T16:55:25.278Z,7.57
2018-11-06T16:57:53.466Z,8.20
2018-11-06T17:00:23.561Z,8.20
2018-11-06T17:02:52.389Z,6.87
2018-11-06T17:05:20.519Z,7.13
2018-11-06T17:07:49.343Z,7.23
2018-11-06T17:10:17.915Z,8.53
2018-11-06T17:12:45.947Z,7.97
2018-11-06T17:15:25.295Z,7.90
2018-11-06T17:17:53.934Z,7.07
2018-11-06T17:20:22.586Z,7.03
2018-11-06T17:22:50.619Z,7.27
2018-11-06T17:25:24.078Z,6.10
2018-11-06T17:27:52.022Z,6.10
2018-11-06T17:30:20.257Z,5.80
2018-11-06T17:32:48.869Z,4.67
2018-11-06T17:35:31.673Z,4.77
2018-11-06T17:38:08.144Z,4.70
2018-11-06T17:43:03.194Z,4.73
2018-11-06T17:45:31.156Z,4.30
2018-11-06T17:47:59.098Z,4.73
2018-11-06T17:50:27.138Z,4.70
2018-11-06T17:52:55.119Z,4.67
2018-11-06T17:55:24.442Z,5.10
2018-11-06T17:57:52.449Z,5.93
2018-11-06T18:00:22.128Z,5.27
2018-11-06T18:02:50.185Z,5.10
2018-11-06T18:05:19.525Z,6.10
2018-11-06T18:07:47.466Z,5.20
2018-11-06T18:10:19.112Z,5.10
2018-11-06T18:12:48.200Z,5.10
2018-11-06T18:15:16.275Z,4.80
2018-11-06T18:17:45.373Z,5.20
2018-11-06T18:20:16.170Z,4.93
2018-11-06T18:22:44.799Z,4.90
2018-11-06T18:25:19.074Z,5.07
2018-11-06T18:27:47.065Z,4.73
2018-11-06T18:30:16.795Z,5.70
2018-11-06T18:32:44.849Z,5.20
2018-11-06T18:35:17.936Z,4.73
2018-11-06T18:37:49.157Z,4.83
2018-11-06T18:40:18.766Z,5.40
2018-11-06T18:42:47.746Z,4.80
2018-11-06T18:45:23.811Z,4.90
2018-11-06T18:47:51.955Z,4.77
2018-11-06T18:50:20.113Z,4.80
2018-11-06T18:52:49.193Z,5.27
2018-11-06T18:55:17.259Z,4.70
2018-11-06T18:57:45.256Z,4.87
2018-11-06T19:00:18.479Z,5.30
2018-11-06T19:02:47.627Z,4.93
2018-11-06T19:05:17.163Z,5.00
2018-11-06T19:07:45.271Z,5.07
2018-11-06T19:10:14.923Z,5.30
2018-11-06T19:12:43.139Z,5.40
2018-11-06T19:15:16.075Z,5.73
2018-11-06T19:17:45.767Z,6.27
2018-11-06T19:20:14.249Z,5.67
2018-11-06T19:22:42.249Z,5.10
2018-11-06T19:25:11.433Z,5.53
2018-11-06T19:27:39.541Z,5.80
2018-11-06T19:30:11.185Z,6.03
2018-11-06T19:32:39.397Z,6.50
2018-11-06T19:35:09.442Z,5.60
2018-11-06T19:37:38.285Z,5.77
2018-11-06T19:40:07.975Z,6.03
2018-11-06T19:42:36.335Z,6.20
2018-11-06T19:45:05.983Z,5.67
2018-11-06T19:47:37.113Z,6.60
2018-11-06T19:50:06.785Z,5.37
2018-11-06T19:52:34.780Z,5.70
2018-11-06T19:55:02.958Z,6.40
2018-11-06T19:57:31.037Z,5.50
2018-11-06T19:59:59.114Z,5.57
2018-11-06T20:02:27.294Z,5.40
2018-11-06T20:04:55.325Z,5.17
2018-11-06T20:07:24.501Z,4.97
2018-11-06T20:09:52.919Z,5.60
2018-11-06T20:12:21.244Z,5.60
2018-11-06T20:14:54.505Z,5.10
2018-11-06T20:17:22.729Z,5.43
2018-11-06T20:19:52.658Z,5.20
2018-11-06T20:22:20.697Z,5.30
2018-11-06T20:24:48.657Z,6.77
2018-11-06T20:27:16.727Z,6.37
2018-11-06T20:29:44.655Z,5.50
2018-11-06T20:32:12.707Z,5.60
2018-11-06T20:34:40.693Z,5.33
2018-11-06T20:37:08.788Z,5.33
2018-11-06T20:39:37.967Z,5.40
2018-11-06T20:42:06.090Z,5.37
2018-11-06T20:44:35.277Z,5.17
2018-11-06T20:47:03.272Z,5.50
2018-11-06T20:49:31.342Z,5.00
2018-11-06T20:51:59.467Z,4.77
2018-11-06T20:54:27.424Z,4.90
2018-11-06T20:56:55.517Z,5.37
2018-11-06T20:59:23.763Z,4.50
2018-11-06T21:01:51.752Z,4.43
2018-11-06T21:04:20.526Z,3.93
2018-11-06T21:06:48.571Z,4.63
2018-11-06T21:09:17.220Z,4.30
2018-11-06T21:11:46.310Z,4.07
2018-11-06T21:14:14.497Z,4.00
2018-11-06T21:16:42.585Z,4.03
2018-11-06T21:19:10.581Z,3.67
2018-11-06T21:21:38.722Z,3.63
2018-11-06T21:24:06.683Z,3.90
2018-11-06T21:26:34.708Z,4.10
2018-11-06T21:29:02.699Z,3.73
2018-11-06T21:31:30.660Z,4.00
2018-11-06T21:33:58.624Z,3.50
2018-11-06T21:36:26.687Z,3.80
2018-11-06T21:38:54.670Z,3.77
2018-11-06T21:41:22.643Z,3.33
2018-11-06T21:43:50.584Z,3.43
2018-11-06T21:46:21.834Z,3.50
2018-11-06T21:48:50.164Z,3.70
2018-11-06T21:51:18.528Z,3.87
2018-11-06T21:53:48.541Z,2.90
2018-11-06T21:56:18.981Z,3.30
2018-11-06T21:58:47.402Z,3.33
2018-11-06T22:01:22.125Z,2.83
2018-11-06T22:03:51.017Z,2.77
2018-11-06T22:06:19.215Z,2.40
2018-11-06T22:08:48.858Z,2.87
2018-11-06T22:11:17.816Z,2.90
2018-11-06T22:13:47.553Z,2.30
2018-11-06T22:16:15.852Z,2.20
2018-11-06T22:18:49.215Z,1.90
2018-11-06T22:21:17.363Z,1.87
2018-11-06T22:23:46.353Z,1.80
2018-11-06T22:26:14.497Z,2.00
2018-11-06T22:28:42.456Z,1.73
2018-11-06T22:31:10.411Z,1.80
2018-11-06T22:33:38.397Z,1.80
2018-11-06T22:36:06.355Z,1.70
2018-11-06T22:38:34.290Z,1.50
2018-11-06T22:41:02.188Z,1.50
2018-11-06T22:43:30.127Z,1.50
2018-11-06T22:45:58.099Z,1.47
2018-11-06T22:48:26.068Z,1.40
2018-11-06T22:50:53.955Z,1.30
2018-11-06T22:53:22.205Z,1.57
2018-11-06T22:55:50.108Z,1.20
2018-11-06T22:58:18.104Z,1.20
2018-11-06T23:00:51.739Z,1.27
2018-11-06T23:03:20.747Z,1.40
2018-11-06T23:05:48.820Z,1.53
2018-11-06T23:08:23.743Z,1.47
2018-11-06T23:10:51.623Z,1.50
2018-11-06T23:13:19.502Z,1.43
2018-11-06T23:15:52.921Z,1.27
2018-11-06T23:18:21.845Z,1.27
2018-11-06T23:20:50.103Z,1.30
2018-11-06T23:23:18.070Z,1.40
2018-11-06T23:25:46.009Z,1.27
2018-11-06T23:28:13.997Z,1.30
2018-11-06T23:30:41.857Z,1.53
2018-11-06T23:33:10.823Z,1.33
2018-11-06T23:35:42.475Z,1.30
2018-11-06T23:38:10.303Z,1.20
2018-11-06T23:40:38.371Z,1.27
2018-11-06T23:43:06.620Z,1.20
2018-11-06T23:45:34.517Z,1.37
2018-11-06T23:48:02.399Z,1.17
2018-11-06T23:50:30.280Z,1.03
2018-11-06T23:52:58.187Z,1.10
2018-11-06T23:55:29.773Z,1.20
2018-11-06T23:57:57.725Z,1.30
